Latest Coastal Weather Observations for Gabo Island

IDT60701

Issued at 3:32 am EST Thursday 3 September 2015 (issued every 10 minutes, with the page automatically refreshed every 10 minutes)

About coastal observations | Map of coastal stations | Coastal observations for TAS | Marine services | Other Formats
Station Details ID: 084016 Name: GABO ISLAND LIGHTHOUSE Lat: -37.57 Lon: 149.92 Height: 15.2 m
Data from the previous 72 hours. | See also: Recent months at Gabo Island
Date/Time
EST
Temp

°C
Wind Pressure Rain
since 9am
mm
Weather Cloud Vis
km
Sea
Height
m
Swell
Dir
 
Speed
knots
Gust
knots
hPa Trend Height
m
Period
s
Dir
03/03:30am 12.5 W 7 9 1004.8 - 0.2 - - - - - - -
03/03:00am 14.5 N 9 11 1004.6 - 0.2 Fine Mostly cloudy 30 <0.5 1.0 - -
03/02:30am 14.3 N 14 17 1005.1 - 0.2 - - - - - - -
03/02:00am 13.4 NNE 7 10 1005.8 - 0.2 - - - - - - -
03/01:30am 13.7 N 10 13 1006.1 - 0.2 - - - - - - -
03/01:00am 13.7 NNE 6 8 1006.3 - 0.2 - - - - - - -
03/12:30am 13.9 NE 11 13 1006.6 - 0.2 - - - - - - -
03/12:00am 13.9 NNE 11 15 1006.9 - 0.2 - - - - - - -
 
Date/Time
EST
Temp

°C
Wind Pressure Rain
since 9am
mm
Weather Cloud Vis
km
Sea
Height
m
Swell
Dir
 
Speed
knots
Gust
knots
hPa Trend Height
m
Period
s
Dir
02/11:30pm 13.4 NE 11 13 1007.2 - 0.2 - - - - - - -
02/11:00pm 13.6 NE 8 10 1007.5 - 0.2 - - - - - - -
02/10:30pm 13.7 NNE 10 11 1008.1 - 0.2 - - - - - - -
02/10:00pm 13.4 N 5 9 1008.5 - 0.2 - - - - - - -
02/09:30pm 13.6 NNE 8 11 1008.6 - 0.2 - - - - - - -
02/09:00pm 13.5 NNE 11 14 1008.8 - 0.2 Fine Partly cloudy 30 1 1.0 - -
02/08:30pm 13.6 NNE 13 17 1008.9 - 0.2 - - - - - - -
02/08:00pm 14.0 NNE 14 18 1009.1 - 0.2 - - - - - - -
02/07:30pm 13.9 NNE 13 15 1009.2 - 0.2 - - - - - - -
02/07:00pm 14.0 NNE 16 19 1009.1 - 0.2 - - - - - - -
02/06:30pm 13.8 NE 15 17 1009.2 - 0.2 - - - - - - -
02/06:00pm 14.0 NNE 17 19 1009.2 - 0.2 - - - - - - -
02/05:30pm 14.3 NNE 18 21 1009.1 - 0.2 - - - - - - -
02/05:00pm 14.8 NNE 19 23 1009.3 - 0.2 - - - - - - -
02/04:30pm 15.1 NNE 20 24 1009.7 - 0.2 - - - - - - -
02/04:00pm 15.4 NNE 19 23 1010.0 - 0.2 - - - - - - -
02/03:30pm 15.5 NNE 20 25 1010.2 - 0.2 - - - - - - -
02/03:00pm 15.3 NE 17 22 1010.5 - 0.2 Fine Partly cloudy 30 1 1.0 - -
02/02:30pm 15.2 NNE 21 25 1010.4 - 0.2 - - - - - - -
02/02:00pm - NE 21 25 1010.9 - 0.2 - - - - - - -
02/01:30pm - NNE 22 30 1011.0 - 0.2 - - - - - - -
02/01:00pm - CALM 0 0 1011.8 - 0.2 - - - - - - -
02/12:00pm - NE 17 - 1013.2 - - - - - - - - -
02/10:00am 11.8 SW 4 5 1015.1 - 0.2 - - - - - - -
02/09:30am 12.3 NE 2 4 1015.3 - 0.0 - - - - - - -
02/09:00am 11.7 NE 3 5 1015.5 - 0.0 Fine Mostly clear 30 1 1.0 - -
02/08:30am 9.6 SW 3 4 1015.5 - 0.0 - - - - - - -
02/08:00am 9.3 WSW 1 3 1015.4 - 0.0 - - - - - - -
02/07:30am 9.9 NNE 4 6 1015.4 - 0.0 - - - - - - -
02/07:00am 7.7 NW 5 6 1015.3 - 0.0 - - - - - - -
02/06:30am 7.1 NNW 6 6 1015.3 - 0.0 - - - - - - -
02/06:00am 7.2 NW 8 9 1015.4 - 0.0 - - - - - - -
02/05:30am 7.7 NW 5 6 1015.3 - 0.0 - - - - - - -
02/05:00am 7.9 NW 8 9 1015.3 - 0.0 - - - - - - -
02/04:30am 7.9 WNW 7 8 1015.2 - 0.0 - - - - - - -
02/04:00am 8.1 NW 9 10 1015.3 - 0.0 - - - - - - -
02/03:30am 7.9 NW 8 9 1015.2 - 0.0 - - - - - - -
02/03:00am 7.6 NW 9 11 1015.5 - 0.0 Fine Clear 50 1 1.0 - -
02/02:30am 7.9 WNW 9 11 1015.8 - 0.0 - - - - - - -
02/02:00am 7.8 NW 8 9 1015.8 - 0.0 - - - - - - -
02/01:30am 7.7 NW 9 11 1016.2 - 0.0 - - - - - - -
02/01:00am 7.8 NW 8 11 1016.2 - 0.0 - - - - - - -
02/12:30am 7.9 NW 9 12 1016.1 - 0.0 - - - - - - -
02/12:00am 8.0 NW 11 14 1016.3 - 0.0 - - - - - - -
 
Date/Time
EST
Temp

°C
Wind Pressure Rain
since 9am
mm
Weather Cloud Vis
km
Sea
Height
m
Swell
Dir
 
Speed
knots
Gust
knots
hPa Trend Height
m
Period
s
Dir
01/11:30pm 8.0 NW 10 13 1016.1 - 0.0 - - - - - - -
01/11:00pm 8.2 WNW 8 10 1016.1 - 0.0 - - - - - - -
01/10:30pm 8.4 NW 10 13 1016.0 - 0.0 - - - - - - -
01/10:00pm 8.9 WNW 9 11 1015.8 - 0.0 - - - - - - -
01/09:30pm 9.0 WNW 7 10 1015.4 - 0.0 - - - - - - -
01/09:00pm 10.1 W 12 14 1015.4 - 0.0 Fine Mostly clear 40 1 4.0 - -
01/08:30pm 10.5 W 12 15 1015.1 - 0.0 - - - - - - -
01/08:00pm 11.1 WSW 12 15 1014.9 - 0.0 - - - - - - -
01/07:30pm 11.2 WSW 16 18 1014.9 - 0.0 - - - - - - -
01/07:00pm 11.0 WSW 15 19 1014.8 - 0.0 - - - - - - -
01/06:30pm 11.0 WSW 16 20 1014.4 - 0.0 - - - - - - -
01/06:00pm 11.5 WSW 19 23 1014.3 - 0.0 - - - - - - -
01/05:30pm 11.7 SW 19 23 1014.0 - 0.0 - - - - - - -
01/05:00pm 12.1 SW 20 24 1014.0 - 0.0 - - - - - - -
01/04:30pm 12.5 SW 21 27 1014.0 - 0.0 - - - - - - -
01/04:00pm 12.7 WSW 22 27 1013.8 - 0.0 - - - - - - -
01/03:30pm 13.0 SW 20 25 1013.8 - 0.0 - - - - - - -
01/03:00pm 13.0 SW 22 27 1013.8 - 0.0 - - - - - - -
01/02:30pm 12.6 SW 22 27 1013.6 - 0.0 - - - - - - -
01/02:00pm 12.8 SW 22 26 1013.5 - 0.0 - - - - - - -
01/01:30pm 12.8 SW 24 29 1013.4 - 0.0 - - - - - - -
01/01:00pm 13.4 SW 22 28 1013.5 - 0.0 - - - - - - -
01/12:30pm 13.5 SW 22 28 1013.8 - 0.0 - - - - - - -
01/12:00pm 13.1 SW 21 25 1014.1 - 0.0 - - - - - - -
01/11:30am 12.9 WSW 22 27 1014.2 - 0.0 - - - - - - -
01/11:00am 13.1 WSW 23 29 1014.3 - 0.0 - - - - - - -
01/10:30am 12.9 WSW 23 27 1014.3 - 0.0 - - - - - - -
01/10:00am 12.7 WSW 20 25 1014.5 - 0.0 - - - - - - -
01/09:30am 12.1 WSW 21 26 1014.5 - 0.0 - - - - - - -
01/09:00am 11.2 WSW 24 28 1014.7 - 1.8 Fine Mostly cloudy 30 1 4.0 - -
01/08:30am 11.0 WSW 23 28 1014.7 - 1.8 - - - - - - -
01/08:00am 10.9 W 21 27 1014.5 - 1.8 - - - - - - -
01/07:30am 10.2 W 21 26 1014.5 - 1.8 - - - - - - -
01/07:00am 9.9 W 21 26 1014.3 - 1.8 - - - - - - -
01/06:30am 10.0 W 22 28 1014.0 - 1.8 - - - - - - -
01/06:00am 10.0 W 23 29 1013.8 - 1.8 - - - - - - -
01/05:30am 10.1 W 21 26 1013.8 - 1.8 - - - - - - -
01/05:00am 10.3 W 21 26 1013.9 - 1.8 - - - - - - -
01/04:30am 10.0 WSW 21 25 1013.9 - 1.8 - - - - - - -
01/04:00am 9.8 W 24 30 1014.0 - 1.8 - - - - - - -
01/03:30am 10.0 W 23 28 1013.9 - 1.8 - - - - - - -
01/03:00am 10.1 W 22 26 1014.0 - 1.8 Fine Cloudy 35 1 5.0 - -
01/02:30am 10.1 W 21 25 1014.2 - 1.8 - - - - - - -
01/02:00am 10.0 W 20 25 1014.6 - 1.8 - - - - - - -
01/01:30am 10.2 W 22 28 1014.9 - 1.8 - - - - - - -
01/01:00am 10.2 W 21 27 1015.0 - 1.8 - - - - - - -
01/12:30am 10.1 W 21 25 1015.2 - 1.8 - - - - - - -
01/12:00am 9.9 W 20 27 1015.3 - 1.8 Recent precip. - - - - - -
 
Date/Time
EST
Temp

°C
Wind Pressure Rain
since 9am
mm
Weather Cloud Vis
km
Sea
Height
m
Swell
Dir
 
Speed
knots
Gust
knots
hPa Trend Height
m
Period
s
Dir
31/11:30pm 10.0 W 22 26 1015.5 - 1.6 - - - - - - -
31/11:00pm 10.0 W 21 26 1015.5 - 1.6 - - - - - - -
31/10:30pm 10.4 W 23 28 1015.5 - 1.6 - - - - - - -
31/10:00pm 10.3 W 22 27 1015.5 - 1.6 - - - - - - -
31/09:30pm 10.1 W 19 24 1015.8 - 1.6 - - - - - - -
31/09:00pm 10.1 W 20 26 1015.8 - 1.6 Fine Mostly cloudy 25 2 5.0 - -
31/08:30pm 10.3 W 20 26 1015.8 - 1.6 - - - - - - -
31/08:00pm 10.0 W 21 25 1015.7 - 1.6 - - - - - - -
31/07:30pm 10.3 W 20 26 1015.5 - 1.6 - - - - - - -
31/07:00pm 10.5 W 23 27 1015.5 - 1.6 - - - - - - -
31/06:30pm 9.8 W 21 26 1015.6 - 1.6 - - - - - - -
31/06:00pm 9.9 W 21 26 1015.6 - 1.6 Recent precip. - - - - - -
31/05:30pm 10.1 WSW 21 26 1015.7 - 1.4 - - - - - - -
31/05:00pm 10.2 WSW 22 27 1015.5 - 0.4 - - - - - - -
31/04:30pm 11.0 WSW 23 30 1015.3 - 0.0 - - - - - - -
31/04:00pm 11.7 WSW 24 31 1015.4 - 0.0 - - - - - - -
31/03:30pm 11.3 WSW 23 30 1015.2 - 0.0 - - - - - - -
31/03:00pm 11.8 WSW 25 30 1015.2 - 0.0 Showers Mostly cloudy 15 2 5.0 - -
31/02:30pm 11.8 WSW 24 30 1015.2 - 0.0 - - - - - - -
31/02:00pm 11.8 WSW 24 29 1015.4 - 0.0 - - - - - - -
31/01:30pm 12.1 WSW 23 30 1015.6 - 0.0 - - - - - - -
31/01:00pm 12.3 WSW 24 31 1015.9 - 0.0 - - - - - - -
31/12:30pm 12.4 WSW 25 32 1016.0 - 0.0 - - - - - - -
31/12:00pm 12.3 WSW 24 31 1016.3 - 0.0 - - - - - - -
31/11:30am 12.1 WSW 25 32 1016.4 - 0.0 - - - - - - -
31/11:00am 11.2 WSW 23 30 1016.7 - 0.0 - - - - - - -
31/10:30am 11.6 WSW 25 31 1016.8 - 0.0 - - - - - - -
31/10:00am 10.7 WSW 24 30 1017.1 - 0.0 - - - - - - -
31/09:30am 10.8 WSW 26 31 1017.3 - 0.0 - - - - - - -
31/09:00am 10.1 WSW 24 28 1017.3 - 2.6 Distant precip. Mostly cloudy 15 2 5.0 - -
31/08:30am 9.6 WSW 24 30 1017.2 - 2.6 - - - - - - -
31/08:00am 9.5 WSW 23 30 1017.3 - 2.6 - - - - - - -
31/07:30am 9.6 WSW 22 31 1017.3 - 2.6 - - - - - - -
31/07:00am 9.5 WSW 23 29 1017.2 - 2.6 - - - - - - -
31/06:30am 9.4 WSW 22 29 1017.1 - 2.6 - - - - - - -
31/06:00am 9.7 W 21 27 1016.9 - 2.6 - - - - - - -
31/05:30am 9.6 W 21 27 1017.0 - 2.6 - - - - - - -
31/05:00am 9.6 W 21 26 1017.1 - 2.6 - - - - - - -
31/04:30am 9.8 W 22 29 1017.1 - 2.6 - - - - - - -
31/04:00am 9.9 W 22 27 1017.1 - 2.6 - - - - - - -

Other Formats:

Comma delimited format used in spreadsheet applications
http://www.bom.gov.au/fwo/IDT60701/IDT60701.94933.axf

JavaScript Object Notation format (JSON) in row-major order
http://www.bom.gov.au/fwo/IDT60701/IDT60701.94933.json